createdAt,value
2022-09-02T00:00:47.785Z,94636.72
2022-09-02T00:03:14.328Z,94640.13
2022-09-02T00:05:40.552Z,94641.89
2022-09-02T00:08:06.939Z,94639.77
2022-09-02T00:10:33.320Z,94638.48
2022-09-02T00:12:59.713Z,94639.43
2022-09-02T00:15:26.113Z,94632.97
2022-09-02T00:17:52.517Z,94629.56
2022-09-02T00:20:21.304Z,94631.36
2022-09-02T00:22:47.677Z,94635.08
2022-09-02T00:25:14.067Z,94631.83
2022-09-02T00:27:40.455Z,94636.02
2022-09-02T00:30:06.836Z,94641.20
2022-09-02T00:32:33.252Z,94642.83
2022-09-02T00:34:59.639Z,94649.77
2022-09-02T00:37:26.016Z,94649.30
2022-09-02T00:39:52.410Z,94649.92
2022-09-02T00:42:18.793Z,94652.35
2022-09-02T00:44:45.172Z,94658.69
2022-09-02T00:47:11.554Z,94659.29
2022-09-02T00:49:37.936Z,94663.17
2022-09-02T00:52:04.321Z,94659.29
2022-09-02T00:54:30.700Z,94661.88
2022-09-02T00:56:57.089Z,94663.52
2022-09-02T00:59:23.467Z,94655.41
2022-09-02T01:01:50.047Z,94653.80
2022-09-02T01:04:16.230Z,94658.50
2022-09-02T01:06:42.638Z,94654.12
2022-09-02T01:09:09.016Z,94653.80
2022-09-02T01:11:35.402Z,94654.62
2022-09-02T01:14:01.807Z,94652.83
2022-09-02T01:16:28.352Z,94655.09
2022-09-02T01:18:54.601Z,94647.66
2022-09-02T01:21:21.034Z,94645.70
2022-09-02T01:23:47.420Z,94649.11
2022-09-02T01:26:13.802Z,94650.24
2022-09-02T01:28:40.188Z,94639.71
2022-09-02T01:31:06.626Z,94639.71
2022-09-02T01:33:32.959Z,94642.64
2022-09-02T01:35:59.345Z,94642.17
2022-09-02T01:38:25.735Z,94652.83
2022-09-02T01:40:52.159Z,94648.95
2022-09-02T01:43:18.522Z,94652.52
2022-09-02T01:45:44.890Z,94648.63
2022-09-02T01:48:11.276Z,94646.52
2022-09-02T01:50:37.657Z,94641.35
2022-09-02T01:53:04.159Z,94636.19
2022-09-02T01:55:30.588Z,94625.50
2022-09-02T01:57:56.970Z,94622.44
2022-09-02T02:00:23.352Z,94615.50
2022-09-02T02:02:49.751Z,94611.75
2022-09-02T02:05:16.224Z,94610.46
2022-09-02T02:07:42.640Z,94610.33
2022-09-02T02:10:09.025Z,94612.57
2022-09-02T02:12:35.521Z,94612.57
2022-09-02T02:15:01.913Z,94615.03
2022-09-02T02:17:28.285Z,94621.14
2022-09-02T02:19:54.669Z,94618.72
2022-09-02T02:22:21.053Z,94624.36
2022-09-02T02:24:47.438Z,94620.95
2022-09-02T02:27:13.852Z,94621.09
2022-09-02T02:29:40.247Z,94620.27
2022-09-02T02:32:06.628Z,94620.77
2022-09-02T02:34:33.045Z,94619.26
2022-09-02T02:36:59.428Z,94623.83
2022-09-02T02:39:25.809Z,94617.17
2022-09-02T02:41:52.198Z,94623.29
2022-09-02T02:44:18.606Z,94628.80
2022-09-02T02:46:45.051Z,94624.93
2022-09-02T02:49:11.371Z,94626.70
2022-09-02T02:51:37.765Z,94633.98
2022-09-02T02:54:04.182Z,94629.06
2022-09-02T02:56:30.569Z,94634.92
2022-09-02T02:58:56.958Z,94626.34
2022-09-02T03:01:23.352Z,94630.03
2022-09-02T03:03:49.721Z,94631.92
2022-09-02T03:06:16.106Z,94629.56
2022-09-02T03:08:42.490Z,94628.40
2022-09-02T03:11:08.873Z,94633.56
2022-09-02T03:13:35.251Z,94631.92
2022-09-02T03:16:01.879Z,94634.04
2022-09-02T03:18:28.152Z,94631.92
2022-09-02T03:20:54.577Z,94623.39
2022-09-02T03:23:21.177Z,94617.88
2022-09-02T03:25:47.499Z,94623.86
2022-09-02T03:28:13.882Z,94623.86
2022-09-02T03:30:40.263Z,94628.55
2022-09-02T03:33:06.650Z,94628.68
2022-09-02T03:35:33.031Z,94628.20
2022-09-02T03:37:59.418Z,94635.61
2022-09-02T03:40:25.827Z,94629.63
2022-09-02T03:42:54.634Z,94635.96
2022-09-02T03:45:18.576Z,94638.20
2022-09-02T03:47:44.962Z,94644.66
2022-09-02T03:50:11.346Z,94646.30
2022-09-02T03:52:37.727Z,94649.07
2022-09-02T03:55:04.109Z,94649.70
2022-09-02T03:57:30.524Z,94660.51
2022-09-02T03:59:56.901Z,94663.76
2022-09-02T04:02:23.405Z,94668.61
2022-09-02T04:04:49.659Z,94671.52
2022-09-02T04:07:16.149Z,94674.09
2022-09-02T04:09:46.613Z,94673.69
2022-09-02T04:12:08.933Z,94681.19
2022-09-02T04:14:35.322Z,94681.05
2022-09-02T04:17:01.702Z,94682.41
2022-09-02T04:19:28.091Z,94676.42
2022-09-02T04:21:54.469Z,94676.77
2022-09-02T04:24:20.855Z,94678.25
2022-09-02T04:26:47.240Z,94684.05
2022-09-02T04:29:13.625Z,94689.41
2022-09-02T04:31:40.091Z,94688.94
2022-09-02T04:34:06.478Z,94694.92
2022-09-02T04:36:32.882Z,94700.22
2022-09-02T04:38:59.296Z,94699.91
2022-09-02T04:41:25.680Z,94698.92
2022-09-02T04:43:52.065Z,94699.40
2022-09-02T04:46:18.476Z,94699.94
2022-09-02T04:48:44.824Z,94703.97
2022-09-02T04:51:11.281Z,94698.92
2022-09-02T04:53:37.656Z,94702.80
2022-09-02T04:56:05.018Z,94703.97
2022-09-02T04:58:30.429Z,94707.16
2022-09-02T05:00:56.805Z,94709.14
2022-09-02T05:03:23.470Z,94707.03
2022-09-02T05:05:49.699Z,94707.03
2022-09-02T05:08:16.107Z,94705.27
2022-09-02T05:10:42.491Z,94704.80
2022-09-02T05:13:08.887Z,94706.88
2022-09-02T05:15:35.278Z,94701.23
2022-09-02T05:18:01.656Z,94704.01
2022-09-02T05:20:28.131Z,94708.97
2022-09-02T05:22:54.540Z,94704.90
2022-09-02T05:25:20.921Z,94708.50
2022-09-02T05:27:47.308Z,94711.34
2022-09-02T05:30:13.691Z,94711.78
2022-09-02T05:32:40.097Z,94712.37
2022-09-02T05:35:08.484Z,94709.19
2022-09-02T05:37:32.918Z,94709.98
2022-09-02T05:39:59.297Z,94714.87
2022-09-02T05:42:26.923Z,94716.38
2022-09-02T05:44:52.152Z,94717.80
2022-09-02T05:47:18.536Z,94714.66
2022-09-02T05:49:44.919Z,94710.17
2022-09-02T05:52:11.331Z,94711.22
2022-09-02T05:54:37.715Z,94716.11
2022-09-02T05:57:04.116Z,94712.89
2022-09-02T05:59:30.510Z,94708.80
2022-09-02T06:01:57.260Z,94706.08
2022-09-02T06:04:23.595Z,94710.53
2022-09-02T06:06:49.985Z,94713.33
2022-09-02T06:09:16.369Z,94708.95
2022-09-02T06:11:42.756Z,94705.92
2022-09-02T06:14:09.251Z,94706.30
2022-09-02T06:16:35.654Z,94707.69
2022-09-02T06:19:02.038Z,94712.77
2022-09-02T06:21:28.423Z,94717.24
2022-09-02T06:23:54.803Z,94711.95
2022-09-02T06:26:21.214Z,94720.24
2022-09-02T06:28:47.614Z,94722.36
2022-09-02T06:31:14.112Z,94718.51
2022-09-02T06:33:40.424Z,94721.19
2022-09-02T06:36:06.809Z,94721.13
2022-09-02T06:38:33.261Z,94723.17
2022-09-02T06:40:59.651Z,94720.74
2022-09-02T06:43:26.049Z,94727.30
2022-09-02T06:45:52.463Z,94724.25
2022-09-02T06:48:18.846Z,94730.61
2022-09-02T06:50:45.242Z,94730.27
2022-09-02T06:53:11.636Z,94732.03
2022-09-02T06:55:38.044Z,94731.63
2022-09-02T06:58:04.427Z,94732.91
2022-09-02T07:00:30.808Z,94733.45
2022-09-02T07:02:58.891Z,94734.75
2022-09-02T07:05:23.602Z,94732.95
2022-09-02T07:07:50.025Z,94734.78
2022-09-02T07:10:16.507Z,94738.25
2022-09-02T07:12:44.488Z,94745.09
2022-09-02T07:15:09.371Z,94738.06
2022-09-02T07:17:35.758Z,94747.41
2022-09-02T07:20:02.143Z,94743.54
2022-09-02T07:22:28.570Z,94747.32
2022-09-02T07:24:55.001Z,94745.55
2022-09-02T07:27:21.352Z,94746.66
2022-09-02T07:29:47.741Z,94746.97
2022-09-02T07:32:15.560Z,94743.44
2022-09-02T07:34:40.633Z,94748.14
2022-09-02T07:37:10.681Z,94749.53
2022-09-02T07:39:33.421Z,94757.29
2022-09-02T07:41:59.832Z,94748.23
2022-09-02T07:44:26.236Z,94749.53
2022-09-02T07:46:52.701Z,94753.41
2022-09-02T07:49:23.805Z,94747.95
2022-09-02T07:51:45.485Z,94750.55
2022-09-02T07:54:13.549Z,94748.15
2022-09-02T07:56:38.328Z,94747.52
2022-09-02T07:59:04.709Z,94752.62
2022-09-02T08:01:31.237Z,94754.45
2022-09-02T08:03:59.386Z,94758.56
2022-09-02T08:06:33.620Z,94756.85
2022-09-02T08:08:50.345Z,94761.67
2022-09-02T08:11:16.745Z,94762.09
2022-09-02T08:13:43.128Z,94765.27
2022-09-02T08:16:09.542Z,94761.48
2022-09-02T08:18:37.705Z,94765.70
2022-09-02T08:21:02.316Z,94769.30
2022-09-02T08:23:37.452Z,94770.88
2022-09-02T08:25:55.122Z,94774.81
2022-09-02T08:28:21.549Z,94771.06
2022-09-02T08:30:47.956Z,94778.92
2022-09-02T08:33:14.445Z,94775.16
2022-09-02T08:35:40.792Z,94770.94
2022-09-02T08:38:07.169Z,94770.59
2022-09-02T08:40:33.634Z,94768.00
2022-09-02T08:42:59.946Z,94765.98
2022-09-02T08:45:26.399Z,94763.41
2022-09-02T08:47:52.749Z,94762.78
2022-09-02T08:50:19.143Z,94755.91
2022-09-02T08:52:45.513Z,94755.56
2022-09-02T08:55:11.948Z,94757.80
2022-09-02T08:57:38.483Z,94762.97
2022-09-02T09:00:04.840Z,94752.97
2022-09-02T09:02:31.264Z,94759.31
2022-09-02T09:04:57.641Z,94760.73
2022-09-02T09:07:24.068Z,94754.17
2022-09-02T09:09:50.428Z,94757.86
2022-09-02T09:12:16.813Z,94753.80
2022-09-02T09:14:43.196Z,94749.54
2022-09-02T09:17:09.575Z,94747.77
2022-09-02T09:19:35.957Z,94738.72
2022-09-02T09:22:02.343Z,94741.94
2022-09-02T09:24:28.725Z,94739.95
2022-09-02T09:26:55.111Z,94740.30
2022-09-02T09:29:21.554Z,94740.84
2022-09-02T09:31:47.986Z,94738.59
2022-09-02T09:34:14.312Z,94741.66
2022-09-02T09:36:40.727Z,94735.79
2022-09-02T09:39:07.127Z,94735.47
2022-09-02T09:41:33.518Z,94732.26
2022-09-02T09:43:59.904Z,94732.41
2022-09-02T09:46:26.288Z,94731.63
2022-09-02T09:48:52.689Z,94723.87
2022-09-02T09:51:19.078Z,94727.75
2022-09-02T09:53:45.468Z,94724.59
2022-09-02T09:56:11.856Z,94729.13
2022-09-02T09:58:38.235Z,94725.88
2022-09-02T10:01:04.703Z,94727.56
2022-09-02T10:03:33.024Z,94733.87
2022-09-02T10:05:57.426Z,94740.55
2022-09-02T10:08:23.826Z,94736.13
2022-09-02T10:10:50.222Z,94736.13
2022-09-02T10:13:16.613Z,94740.30
2022-09-02T10:15:42.999Z,94734.66
2022-09-02T10:18:09.387Z,94730.70
2022-09-02T10:20:37.129Z,94728.38
2022-09-02T10:23:02.183Z,94732.41
2022-09-02T10:25:28.615Z,94729.80
2022-09-02T10:27:54.979Z,94734.47
2022-09-02T10:30:21.361Z,94727.75
2022-09-02T10:32:47.752Z,94722.00
2022-09-02T10:35:14.217Z,94724.12
2022-09-02T10:37:40.607Z,94717.77
2022-09-02T10:40:07.059Z,94725.28
2022-09-02T10:42:33.392Z,94728.00
2022-09-02T10:44:59.802Z,94730.70
2022-09-02T10:47:30.162Z,94730.05
2022-09-02T10:49:52.601Z,94727.40
2022-09-02T10:52:18.999Z,94729.07
2022-09-02T10:54:45.385Z,94727.53
2022-09-02T10:57:11.815Z,94730.08
2022-09-02T10:59:38.201Z,94730.70
2022-09-02T11:02:04.585Z,94724.34
2022-09-02T11:04:30.960Z,94726.89
2022-09-02T11:07:04.590Z,94725.78
2022-09-02T11:09:23.779Z,94722.48
2022-09-02T11:11:50.152Z,94718.94
2022-09-02T11:14:16.638Z,94717.72
2022-09-02T11:16:43.042Z,94719.20
2022-09-02T11:19:09.430Z,94714.53
2022-09-02T11:21:35.830Z,94704.59
2022-09-02T11:24:02.233Z,94698.25
2022-09-02T11:26:28.627Z,94707.30
2022-09-02T11:28:55.008Z,94706.95
2022-09-02T11:31:22.660Z,94702.31
2022-09-02T11:33:47.834Z,94699.97
2022-09-02T11:36:14.222Z,94703.51
2022-09-02T11:38:40.614Z,94700.26
2022-09-02T11:43:33.387Z,94692.91
2022-09-02T11:45:59.847Z,94683.57
2022-09-02T11:48:26.184Z,94674.99
2022-09-02T11:50:52.587Z,94666.70
2022-09-02T11:53:19.094Z,94660.05
2022-09-02T11:55:45.394Z,94661.30
2022-09-02T11:58:11.798Z,94660.69
2022-09-02T12:00:38.263Z,94664.41
2022-09-02T12:03:11.887Z,94669.05
2022-09-02T12:05:31.211Z,94671.16
2022-09-02T12:07:57.522Z,94681.27
2022-09-02T12:10:23.918Z,94656.97
2022-09-02T12:12:51.994Z,94680.55
2022-09-02T12:15:16.701Z,94681.19
2022-09-02T12:17:43.098Z,94679.43
2022-09-02T12:20:09.613Z,94677.06
2022-09-02T12:22:35.904Z,94675.86
2022-09-02T12:25:04.720Z,94675.86
2022-09-02T12:27:28.746Z,94667.99
2022-09-02T12:29:55.226Z,94660.81
2022-09-02T12:32:21.538Z,94653.20
2022-09-02T12:34:47.925Z,94657.22
2022-09-02T12:37:14.313Z,94651.52
2022-09-02T12:39:40.709Z,94647.16
2022-09-02T12:42:07.106Z,94644.71
2022-09-02T12:44:34.598Z,94637.88
2022-09-02T12:47:01.094Z,94636.64
2022-09-02T12:49:27.375Z,94632.36
2022-09-02T12:51:53.767Z,94632.88
2022-09-02T12:54:20.159Z,94633.59
2022-09-02T12:56:46.539Z,94631.06
2022-09-02T12:59:12.930Z,94631.25
2022-09-02T13:01:39.595Z,94625.77
2022-09-02T13:04:05.822Z,94630.64
2022-09-02T13:06:32.200Z,94629.34
2022-09-02T13:08:58.627Z,94632.88
2022-09-02T13:11:25.039Z,94631.05
2022-09-02T13:13:51.423Z,94625.70
2022-09-02T13:16:18.726Z,94627.23
2022-09-02T13:18:44.232Z,94626.39
2022-09-02T13:21:10.688Z,94630.64
2022-09-02T13:23:37.122Z,94626.41
2022-09-02T13:26:03.529Z,94626.41
2022-09-02T13:28:29.912Z,94630.98
2022-09-02T13:30:56.329Z,94627.63
2022-09-02T13:33:22.748Z,94631.52
2022-09-02T13:35:49.064Z,94635.05
2022-09-02T13:38:17.426Z,94635.52
2022-09-02T13:40:43.779Z,94632.17
2022-09-02T13:43:08.245Z,94634.09
2022-09-02T13:45:34.668Z,94643.47
2022-09-02T13:48:01.039Z,94648.28
2022-09-02T13:50:27.416Z,94652.20
2022-09-02T13:55:20.208Z,94664.13
2022-09-02T13:57:46.667Z,94671.07
2022-09-02T14:00:13.156Z,94675.77
2022-09-02T14:02:41.583Z,94673.53
2022-09-02T14:05:05.880Z,94677.64
2022-09-02T14:07:32.271Z,94684.98
2022-09-02T14:09:58.665Z,94674.58
2022-09-02T14:12:25.057Z,94649.95
2022-09-02T14:14:51.432Z,94655.25
2022-09-02T14:17:17.940Z,94657.45
2022-09-02T14:19:44.329Z,94669.34
2022-09-02T14:22:10.729Z,94679.44
2022-09-02T14:24:37.111Z,94684.55
2022-09-02T14:27:03.565Z,94688.95
2022-09-02T14:29:30.048Z,94697.19
2022-09-02T14:31:56.413Z,94701.95
2022-09-02T14:34:23.141Z,94703.78
2022-09-02T14:36:49.533Z,94702.99
2022-09-02T14:39:15.973Z,94703.84
2022-09-02T14:41:42.311Z,94700.25
2022-09-02T14:44:08.702Z,94702.36
2022-09-02T14:46:35.131Z,94710.30
2022-09-02T14:49:01.469Z,94717.52
2022-09-02T14:51:27.868Z,94718.63
2022-09-02T14:53:54.249Z,94718.82
2022-09-02T14:56:23.987Z,94716.03
2022-09-02T14:58:50.479Z,94719.48
2022-09-02T15:01:16.934Z,94717.09
2022-09-02T15:03:43.370Z,94724.17
2022-09-02T15:06:14.503Z,94723.63
2022-09-02T15:08:36.151Z,94727.16
2022-09-02T15:11:02.548Z,94726.88
2022-09-02T15:13:28.938Z,94724.84
2022-09-02T15:15:55.506Z,94727.98
2022-09-02T15:18:21.976Z,94728.05
2022-09-02T15:20:48.362Z,94728.05
2022-09-02T15:23:14.835Z,94727.55
2022-09-02T15:25:41.122Z,94731.11
2022-09-02T15:28:07.500Z,94730.67
2022-09-02T15:30:33.924Z,94729.53
2022-09-02T15:33:00.307Z,94730.83
2022-09-02T15:35:26.707Z,94724.37
2022-09-02T15:37:53.084Z,94714.50
2022-09-02T15:40:19.475Z,94726.48
2022-09-02T15:42:45.848Z,94726.20
2022-09-02T15:45:12.239Z,94724.75
2022-09-02T15:47:38.671Z,94725.73
2022-09-02T15:50:07.501Z,94727.02
2022-09-02T15:52:31.467Z,94727.27
2022-09-02T15:54:57.846Z,94738.66
2022-09-02T15:57:24.233Z,94740.07
2022-09-02T15:59:50.620Z,94740.42
2022-09-02T16:02:17.030Z,94740.61
2022-09-02T16:04:43.466Z,94747.20
2022-09-02T16:07:09.882Z,94744.21
2022-09-02T16:09:36.296Z,94750.33
2022-09-02T16:12:02.688Z,94751.34
2022-09-02T16:14:29.070Z,94745.85
2022-09-02T16:16:58.500Z,94741.00
2022-09-02T16:19:24.771Z,94736.65
2022-09-02T16:21:51.155Z,94740.53
2022-09-02T16:24:17.531Z,94736.80
2022-09-02T16:26:43.914Z,94745.85
2022-09-02T16:29:10.295Z,94750.55
2022-09-02T16:31:36.671Z,94759.38
2022-09-02T16:34:03.050Z,94761.02
2022-09-02T16:36:33.233Z,94761.29
2022-09-02T16:38:55.823Z,94765.64
2022-09-02T16:41:22.201Z,94764.22
2022-09-02T16:43:48.588Z,94765.17
2022-09-02T16:46:15.047Z,94761.77
2022-09-02T16:48:41.371Z,94768.22
2022-09-02T16:51:07.757Z,94767.41
2022-09-02T16:53:34.145Z,94771.28
2022-09-02T16:56:00.528Z,94767.59
2022-09-02T16:58:26.913Z,94771.75
2022-09-02T17:00:53.323Z,94773.59
2022-09-02T17:03:19.694Z,94776.33
2022-09-02T17:05:46.070Z,94768.70
2022-09-02T17:08:12.479Z,94773.74
2022-09-02T17:10:38.908Z,94774.22
2022-09-02T17:13:05.306Z,94778.72
2022-09-02T17:15:31.690Z,94774.48
2022-09-02T17:17:58.151Z,94774.84
2022-09-02T17:20:24.478Z,94783.53
2022-09-02T17:22:50.918Z,94784.48
2022-09-02T17:25:17.310Z,94780.25
2022-09-02T17:27:43.703Z,94781.23
2022-09-02T17:30:10.086Z,94779.94
2022-09-02T17:32:36.531Z,94778.96
2022-09-02T17:35:02.908Z,94786.05
2022-09-02T17:37:29.296Z,94782.99
2022-09-02T17:39:55.722Z,94786.88
2022-09-02T17:42:22.050Z,94788.98
2022-09-02T17:44:48.435Z,94790.74
2022-09-02T17:47:14.819Z,94798.03
2022-09-02T17:49:41.201Z,94801.91
2022-09-02T17:52:07.759Z,94803.20
2022-09-02T17:54:33.965Z,94806.60
2022-09-02T17:57:00.395Z,94811.15
2022-09-02T17:59:26.807Z,94818.16
2022-09-02T18:01:53.192Z,94822.31
2022-09-02T18:04:19.647Z,94826.30
2022-09-02T18:06:46.030Z,94829.05
2022-09-02T18:09:12.405Z,94830.88
2022-09-02T18:11:38.798Z,94834.29
2022-09-02T18:14:05.175Z,94835.08
2022-09-02T18:16:31.600Z,94838.64
2022-09-02T18:18:57.936Z,94838.16
2022-09-02T18:21:24.322Z,94842.71
2022-09-02T18:23:50.705Z,94844.95
2022-09-02T18:26:17.112Z,94847.87
2022-09-02T18:28:43.492Z,94851.76
2022-09-02T18:31:09.905Z,94855.48
2022-09-02T18:33:36.262Z,94860.53
2022-09-02T18:36:02.744Z,94858.89
2022-09-02T18:38:29.129Z,94861.16
2022-09-02T18:40:55.514Z,94864.69
2022-09-02T18:43:21.904Z,94871.34
2022-09-02T18:45:48.343Z,94866.17
2022-09-02T18:48:14.715Z,94877.95
2022-09-02T18:50:51.338Z,94874.08
2022-09-02T18:53:07.573Z,94871.14
2022-09-02T18:55:33.944Z,94871.49
2022-09-02T18:58:00.338Z,94864.69
2022-09-02T19:00:26.708Z,94868.09
2022-09-02T19:02:53.205Z,94871.14
2022-09-02T19:05:19.612Z,94864.33
2022-09-02T19:07:45.992Z,94864.33
2022-09-02T19:10:12.375Z,94861.28
2022-09-02T19:12:38.835Z,94862.22
2022-09-02T19:15:05.205Z,94863.19
2022-09-02T19:17:31.604Z,94865.30
2022-09-02T19:19:57.988Z,94868.20
2022-09-02T19:22:24.375Z,94868.68
2022-09-02T19:24:50.761Z,94863.19
2022-09-02T19:27:17.135Z,94863.31
2022-09-02T19:29:43.520Z,94874.95
2022-09-02T19:32:09.952Z,94870.47
2022-09-02T19:34:36.280Z,94864.33
2022-09-02T19:37:02.667Z,94858.02
2022-09-02T19:39:29.080Z,94855.20
2022-09-02T19:41:55.431Z,94854.62
2022-09-02T19:44:21.810Z,94847.80
2022-09-02T19:49:14.583Z,94852.03
2022-09-02T19:51:40.967Z,94852.97
2022-09-02T19:54:07.350Z,94856.50
2022-09-02T19:56:33.740Z,94855.56
2022-09-02T19:59:00.121Z,94857.67
2022-09-02T20:01:26.546Z,94856.85
2022-09-02T20:03:52.894Z,94859.91
2022-09-02T20:06:19.274Z,94852.85
2022-09-02T20:08:45.711Z,94850.86
2022-09-02T20:11:12.101Z,94853.12
2022-09-02T20:13:41.282Z,94849.25
2022-09-02T20:16:06.947Z,94850.04
2022-09-02T20:18:31.237Z,94849.25
2022-09-02T20:20:57.619Z,94845.38
2022-09-02T20:23:24.002Z,94847.45
2022-09-02T20:25:50.395Z,94850.55
2022-09-02T20:28:16.778Z,94856.03
2022-09-02T20:30:43.270Z,94858.30
2022-09-02T20:33:09.653Z,94862.96
2022-09-02T20:35:36.036Z,94853.59
2022-09-02T20:38:02.465Z,94854.42
2022-09-02T20:40:28.843Z,94860.38
2022-09-02T20:42:55.335Z,94860.38
2022-09-02T20:45:21.718Z,94866.84
2022-09-02T20:47:48.097Z,94867.34
2022-09-02T20:50:14.484Z,94869.10
2022-09-02T20:52:40.864Z,94872.01
2022-09-02T20:55:07.295Z,94868.63
2022-09-02T20:57:33.669Z,94867.81
2022-09-02T21:00:00.071Z,94871.69
2022-09-02T21:02:26.529Z,94876.86
2022-09-02T21:04:52.844Z,94877.68
2022-09-02T21:07:19.222Z,94880.59
2022-09-02T21:09:45.630Z,94882.03
2022-09-02T21:12:12.035Z,94878.47
2022-09-02T21:14:38.430Z,94876.86
2022-09-02T21:17:04.803Z,94878.15
2022-09-02T21:19:31.188Z,94876.04
2022-09-02T21:21:57.565Z,94873.10
2022-09-02T21:24:23.948Z,94870.52
2022-09-02T21:26:50.325Z,94879.09
2022-09-02T21:29:16.712Z,94878.15
2022-09-02T21:31:43.136Z,94884.14
2022-09-02T21:34:09.477Z,94885.08
2022-09-02T21:36:35.865Z,94885.91
2022-09-02T21:39:03.189Z,94890.61
2022-09-02T21:41:28.635Z,94892.95
2022-09-02T21:43:55.838Z,94896.24
2022-09-02T21:46:21.445Z,94887.31
2022-09-02T21:48:47.780Z,94896.24
2022-09-02T21:51:14.158Z,94891.55
2022-09-02T21:53:40.575Z,94894.25
2022-09-02T21:56:06.960Z,94888.29
2022-09-02T21:58:33.347Z,94890.88
2022-09-02T22:00:59.752Z,94884.41
2022-09-02T22:03:26.107Z,94883.59
2022-09-02T22:05:52.488Z,94875.84
2022-09-02T22:08:18.935Z,94875.48
2022-09-02T22:10:45.263Z,94873.25
2022-09-02T22:13:11.651Z,94877.13
2022-09-02T22:15:38.163Z,94877.72
2022-09-02T22:18:04.542Z,94878.89
2022-09-02T22:20:30.930Z,94876.31
2022-09-02T22:22:57.335Z,94876.66
2022-09-02T22:25:23.712Z,94878.42
2022-09-02T22:27:50.163Z,94881.48
2022-09-02T22:30:16.545Z,94877.13
2022-09-02T22:32:42.931Z,94881.95
2022-09-02T22:35:09.338Z,94878.07
2022-09-02T22:37:35.724Z,94879.36
2022-09-02T22:40:02.132Z,94877.95
2022-09-02T22:42:28.486Z,94872.55
2022-09-02T22:44:54.874Z,94875.48
2022-09-02T22:47:21.267Z,94873.25
2022-09-02T22:49:47.638Z,94872.43
2022-09-02T22:52:14.024Z,94877.59
2022-09-02T22:54:40.400Z,94876.43
2022-09-02T22:57:06.780Z,94878.54
2022-09-02T22:59:33.181Z,94879.72
2022-09-02T23:01:59.602Z,94876.78
2022-09-02T23:04:25.946Z,94872.23
2022-09-02T23:06:52.323Z,94873.05
2022-09-02T23:09:18.712Z,94878.54
2022-09-02T23:11:45.100Z,94876.31
2022-09-02T23:14:11.486Z,94873.38
2022-09-02T23:16:37.975Z,94871.06
2022-09-02T23:19:04.361Z,94867.53
2022-09-02T23:21:30.743Z,94874.34
2022-09-02T23:23:57.124Z,94869.97
2022-09-02T23:26:23.507Z,94878.54
2022-09-02T23:28:49.879Z,94882.57
2022-09-02T23:31:16.359Z,94887.73
2022-09-02T23:33:42.665Z,94880.81
2022-09-02T23:36:09.054Z,94885.47
2022-09-02T23:38:35.432Z,94882.89
2022-09-02T23:41:01.810Z,94883.51
2022-09-02T23:43:28.213Z,94883.51
2022-09-02T23:45:54.600Z,94875.88
2022-09-02T23:48:20.980Z,94879.63
2022-09-02T23:50:47.382Z,94880.45
2022-09-02T23:53:13.760Z,94885.27
2022-09-02T23:55:40.148Z,94885.89
2022-09-02T23:58:06.529Z,94885.74
